createdAt,value
2022-12-01T00:00:13.751Z,103367.00
2022-12-01T00:02:47.263Z,103359.00
2022-12-01T00:05:16.230Z,103372.00
2022-12-01T00:07:50.780Z,103367.00
2022-12-01T00:10:34.202Z,103361.00
2022-12-01T00:13:09.994Z,103364.00
2022-12-01T00:15:40.255Z,103369.00
2022-12-01T00:18:11.622Z,103372.00
2022-12-01T00:20:41.750Z,103364.00
2022-12-01T00:23:19.472Z,103362.00
2022-12-01T00:25:59.324Z,103365.00
2022-12-01T00:28:32.553Z,103364.00
2022-12-01T00:31:19.807Z,103359.00
2022-12-01T00:33:53.841Z,103366.00
2022-12-01T00:36:26.759Z,103379.00
2022-12-01T00:38:57.818Z,103368.00
2022-12-01T00:41:27.747Z,103365.00
2022-12-01T00:43:56.644Z,103361.00
2022-12-01T00:46:29.088Z,103370.00
2022-12-01T00:49:04.294Z,103363.00
2022-12-01T00:51:40.575Z,103360.00
2022-12-01T00:54:14.037Z,103361.00
2022-12-01T00:56:43.895Z,103363.00
2022-12-01T00:59:14.732Z,103363.00
2022-12-01T01:01:44.411Z,103362.00
2022-12-01T01:04:14.449Z,103364.00
2022-12-01T01:06:53.061Z,103356.00
2022-12-01T01:09:42.585Z,103363.00
2022-12-01T01:12:12.173Z,103351.00
2022-12-01T01:14:41.385Z,103354.00
2022-12-01T01:17:14.782Z,103354.00
2022-12-01T01:19:47.042Z,103366.00
2022-12-01T01:22:25.932Z,103360.00
2022-12-01T01:25:05.249Z,103358.00
2022-12-01T01:27:40.263Z,103358.00
2022-12-01T01:30:14.105Z,103355.00
2022-12-01T01:32:43.358Z,103356.00
2022-12-01T01:35:13.684Z,103363.00
2022-12-01T01:37:42.382Z,103356.00
2022-12-01T01:40:12.888Z,103361.00
2022-12-01T01:42:43.251Z,103352.00
2022-12-01T01:45:22.514Z,103360.00
2022-12-01T01:47:56.719Z,103368.00
2022-12-01T01:50:33.871Z,103365.00
2022-12-01T01:53:11.502Z,103369.00
2022-12-01T01:55:49.095Z,103357.00
2022-12-01T01:58:23.833Z,103363.00
2022-12-01T02:00:55.836Z,103369.00
2022-12-01T02:03:28.793Z,103366.00
2022-12-01T02:16:23.494Z,103349.00
2022-12-01T02:19:07.442Z,103354.00
2022-12-01T02:21:59.351Z,103342.00
2022-12-01T02:25:18.600Z,103347.00
2022-12-01T02:28:35.462Z,103352.00
2022-12-01T02:31:17.467Z,103350.00
2022-12-01T02:33:59.070Z,103343.00
2022-12-01T02:36:39.271Z,103343.00
2022-12-01T02:39:20.260Z,103351.00
2022-12-01T02:41:54.860Z,103342.00
2022-12-01T02:44:36.320Z,103347.00
2022-12-01T02:47:15.294Z,103342.00
2022-12-01T02:49:50.668Z,103338.00
2022-12-01T02:52:24.986Z,103347.00
2022-12-01T02:54:55.957Z,103343.00
2022-12-01T02:57:32.218Z,103342.00
2022-12-01T03:00:03.299Z,103350.00
2022-12-01T03:02:49.742Z,103343.00
2022-12-01T03:05:28.133Z,103353.00
2022-12-01T03:08:07.925Z,103347.00
2022-12-01T03:10:51.698Z,103351.00
2022-12-01T03:13:34.259Z,103341.00
2022-12-01T03:16:10.047Z,103341.00
2022-12-01T03:18:45.517Z,103342.00
2022-12-01T03:21:26.372Z,103330.00
2022-12-01T03:24:01.149Z,103337.00
2022-12-01T03:26:34.920Z,103348.00
2022-12-01T03:29:12.412Z,103347.00
2022-12-01T03:31:47.046Z,103346.00
2022-12-01T03:34:29.751Z,103350.00
2022-12-01T03:37:12.447Z,103342.00
2022-12-01T03:39:44.959Z,103352.00
2022-12-01T03:42:29.406Z,103347.00
2022-12-01T03:45:09.293Z,103351.00
2022-12-01T03:47:40.599Z,103341.00
2022-12-01T03:50:18.752Z,103350.00
2022-12-01T03:53:16.902Z,103344.00
2022-12-01T03:55:59.446Z,103335.00
2022-12-01T03:58:35.093Z,103341.00
2022-12-01T04:01:07.570Z,103350.00
2022-12-01T04:03:50.925Z,103350.00
2022-12-01T04:06:21.471Z,103349.00
2022-12-01T04:08:50.875Z,103355.00
2022-12-01T04:11:37.791Z,103347.00
2022-12-01T04:14:09.010Z,103353.00
2022-12-01T04:16:41.419Z,103342.00
2022-12-01T04:19:12.702Z,103350.00
2022-12-01T04:21:47.183Z,103354.00
2022-12-01T04:24:17.803Z,103350.00
2022-12-01T04:26:48.855Z,103355.00
2022-12-01T04:29:18.850Z,103353.00
2022-12-01T04:31:57.413Z,103354.00
2022-12-01T04:34:45.193Z,103353.00
2022-12-01T04:37:19.527Z,103355.00
2022-12-01T04:40:01.206Z,103356.00
2022-12-01T04:42:31.802Z,103356.00
2022-12-01T04:45:01.439Z,103360.00
2022-12-01T04:47:30.359Z,103355.00
2022-12-01T04:50:11.935Z,103359.00
2022-12-01T04:52:43.336Z,103356.00
2022-12-01T04:55:12.326Z,103358.00
2022-12-01T04:57:42.704Z,103367.00
2022-12-01T05:00:13.474Z,103356.00
2022-12-01T05:02:43.705Z,103356.00
2022-12-01T05:05:14.839Z,103361.00
2022-12-01T05:07:47.667Z,103370.00
2022-12-01T05:10:20.288Z,103370.00
2022-12-01T05:13:00.463Z,103378.00
2022-12-01T05:15:29.642Z,103370.00
2022-12-01T05:18:09.077Z,103370.00
2022-12-01T05:20:59.965Z,103368.00
2022-12-01T05:23:35.305Z,103376.00
2022-12-01T05:26:15.582Z,103387.00
2022-12-01T05:28:45.005Z,103394.00
2022-12-01T05:31:14.295Z,103396.00
2022-12-01T05:34:01.333Z,103389.00
2022-12-01T05:36:30.164Z,103400.00
2022-12-01T05:39:08.646Z,103403.00
2022-12-01T05:41:37.943Z,103397.00
2022-12-01T05:44:07.823Z,103388.00
2022-12-01T05:46:37.852Z,103401.00
2022-12-01T05:49:08.668Z,103398.00
2022-12-01T05:51:37.410Z,103399.00
2022-12-01T05:54:08.365Z,103394.00
2022-12-01T05:56:37.112Z,103408.00
2022-12-01T05:59:05.742Z,103400.00
2022-12-01T06:01:34.556Z,103401.00
2022-12-01T06:04:03.918Z,103398.00
2022-12-01T06:06:40.529Z,103403.00
2022-12-01T06:09:12.517Z,103411.00
2022-12-01T06:11:52.245Z,103403.00
2022-12-01T06:14:21.245Z,103398.00
2022-12-01T06:17:07.525Z,103422.00
2022-12-01T06:19:40.845Z,103416.00
2022-12-01T06:22:09.438Z,103415.00
2022-12-01T06:24:39.761Z,103412.00
2022-12-01T06:27:08.569Z,103411.00
2022-12-01T06:29:42.216Z,103413.00
2022-12-01T06:32:11.934Z,103416.00
2022-12-01T06:34:42.037Z,103419.00
2022-12-01T06:37:10.924Z,103419.00
2022-12-01T06:39:41.010Z,103426.00
2022-12-01T06:42:11.072Z,103425.00
2022-12-01T06:44:39.950Z,103420.00
2022-12-01T06:47:09.095Z,103421.00
2022-12-01T06:49:39.348Z,103421.00
2022-12-01T06:52:10.237Z,103415.00
2022-12-01T06:54:43.438Z,103420.00
2022-12-01T06:57:12.315Z,103426.00
2022-12-01T06:59:41.199Z,103437.00
2022-12-01T07:02:12.295Z,103427.00
2022-12-01T07:04:42.007Z,103423.00
2022-12-01T07:07:12.108Z,103428.00
2022-12-01T07:09:42.315Z,103425.00
2022-12-01T07:12:10.887Z,103430.00
2022-12-01T07:14:40.048Z,103430.00
2022-12-01T07:17:09.259Z,103439.00
2022-12-01T07:19:38.454Z,103430.00
2022-12-01T07:22:07.338Z,103443.00
2022-12-01T07:24:36.394Z,103443.00
2022-12-01T07:27:06.947Z,103440.00
2022-12-01T07:29:36.244Z,103437.00
2022-12-01T07:32:07.761Z,103434.00
2022-12-01T07:34:38.918Z,103440.00
2022-12-01T07:37:18.657Z,103435.00
2022-12-01T07:40:11.772Z,103447.00
2022-12-01T07:42:44.063Z,103448.00
2022-12-01T07:45:14.772Z,103452.00
2022-12-01T07:47:53.613Z,103450.00
2022-12-01T07:50:23.854Z,103458.00
2022-12-01T07:52:52.943Z,103452.00
2022-12-01T07:55:21.774Z,103451.00
2022-12-01T07:57:52.229Z,103448.00
2022-12-01T08:00:24.434Z,103452.00
2022-12-01T08:02:53.695Z,103433.00
2022-12-01T08:05:22.338Z,103445.00
2022-12-01T08:07:51.881Z,103452.00
2022-12-01T08:10:20.518Z,103441.00
2022-12-01T08:12:49.572Z,103439.00
2022-12-01T08:15:19.942Z,103437.00
2022-12-01T08:17:48.683Z,103445.00
2022-12-01T08:20:23.537Z,103432.00
2022-12-01T08:22:52.905Z,103433.00
2022-12-01T08:25:21.599Z,103434.00
2022-12-01T08:27:51.642Z,103439.00
2022-12-01T08:30:22.308Z,103440.00
2022-12-01T08:32:54.483Z,103432.00
2022-12-01T08:35:23.361Z,103432.00
2022-12-01T08:37:53.874Z,103430.00
2022-12-01T08:40:22.969Z,103447.00
2022-12-01T08:42:53.910Z,103446.00
2022-12-01T08:45:24.211Z,103445.00
2022-12-01T08:47:58.848Z,103448.00
2022-12-01T08:50:28.276Z,103446.00
2022-12-01T08:52:56.893Z,103449.00
2022-12-01T08:55:25.766Z,103443.00
2022-12-01T08:57:55.026Z,103439.00
2022-12-01T09:00:26.113Z,103441.00
2022-12-01T09:02:55.246Z,103447.00
2022-12-01T09:05:23.905Z,103442.00
2022-12-01T09:08:12.571Z,103449.00
2022-12-01T09:10:41.325Z,103442.00
2022-12-01T09:13:10.098Z,103440.00
2022-12-01T09:15:40.085Z,103431.00
2022-12-01T09:18:08.728Z,103441.00
2022-12-01T09:20:37.399Z,103450.00
2022-12-01T09:23:06.040Z,103436.00
2022-12-01T09:25:35.498Z,103440.00
2022-12-01T09:28:04.186Z,103442.00
2022-12-01T09:30:32.804Z,103449.00
2022-12-01T09:33:02.843Z,103447.00
2022-12-01T09:35:33.714Z,103440.00
2022-12-01T09:38:02.370Z,103438.00
2022-12-01T09:40:36.011Z,103441.00
2022-12-01T09:43:12.131Z,103437.00
2022-12-01T09:45:47.977Z,103425.00
2022-12-01T09:48:28.781Z,103430.00
2022-12-01T09:50:57.578Z,103428.00
2022-12-01T09:53:29.980Z,103429.00
2022-12-01T09:56:04.988Z,103432.00
2022-12-01T09:58:48.921Z,103436.00
2022-12-01T10:01:25.876Z,103447.00
2022-12-01T10:04:03.602Z,103447.00
2022-12-01T10:06:40.089Z,103441.00
2022-12-01T10:09:23.021Z,103444.00
2022-12-01T10:11:58.345Z,103445.00
2022-12-01T10:14:31.104Z,103446.00
2022-12-01T10:17:13.816Z,103448.00
2022-12-01T10:19:53.732Z,103450.00
2022-12-01T10:22:51.029Z,103446.00
2022-12-01T10:25:24.612Z,103447.00
2022-12-01T10:28:27.539Z,103447.00
2022-12-01T10:31:16.328Z,103447.00
2022-12-01T10:34:02.570Z,103451.00
2022-12-01T10:36:34.851Z,103450.00
2022-12-01T10:39:06.847Z,103456.00
2022-12-01T10:41:40.264Z,103455.00
2022-12-01T10:44:10.733Z,103464.00
2022-12-01T10:46:46.537Z,103460.00
2022-12-01T10:49:47.777Z,103458.00
2022-12-01T10:52:40.373Z,103450.00
2022-12-01T10:55:29.533Z,103455.00
2022-12-01T10:58:09.482Z,103445.00
2022-12-01T11:00:59.991Z,103456.00
2022-12-01T11:03:32.859Z,103448.00
2022-12-01T11:06:05.798Z,103448.00
2022-12-01T11:08:56.607Z,103450.00
2022-12-01T11:11:31.290Z,103450.00
2022-12-01T11:14:05.286Z,103434.00
2022-12-01T11:16:43.849Z,103444.00
2022-12-01T11:19:31.434Z,103434.00
2022-12-01T11:22:03.380Z,103432.00
2022-12-01T11:24:47.092Z,103432.00
2022-12-01T11:27:21.475Z,103436.00
2022-12-01T11:30:24.859Z,103433.00
2022-12-01T11:32:57.775Z,103438.00
2022-12-01T11:35:31.433Z,103432.00
2022-12-01T11:38:28.825Z,103437.00
2022-12-01T11:40:59.686Z,103437.00
2022-12-01T11:43:32.324Z,103432.00
2022-12-01T11:46:34.121Z,103439.00
2022-12-01T11:49:03.493Z,103434.00
2022-12-01T11:51:37.652Z,103436.00
2022-12-01T11:54:16.733Z,103433.00
2022-12-01T11:59:58.511Z,103427.00
2022-12-01T12:02:50.084Z,103431.00
2022-12-01T12:05:46.630Z,103427.00
2022-12-01T12:08:41.115Z,103412.00
2022-12-01T12:11:20.560Z,103417.00
2022-12-01T12:14:30.541Z,103430.00
2022-12-01T12:17:37.049Z,103424.00
2022-12-01T12:20:45.944Z,103433.00
2022-12-01T12:23:38.626Z,103429.00
2022-12-01T12:26:20.558Z,103423.00
2022-12-01T12:29:20.906Z,103422.00
2022-12-01T12:32:13.844Z,103425.00
2022-12-01T12:34:57.464Z,103422.00
2022-12-01T12:37:40.941Z,103426.00
2022-12-01T12:40:43.862Z,103423.00
2022-12-01T12:43:30.518Z,103427.00
2022-12-01T12:46:09.003Z,103432.00
2022-12-01T12:49:20.257Z,103431.00
2022-12-01T12:51:57.257Z,103423.00
2022-12-01T12:54:32.954Z,103440.00
2022-12-01T12:57:07.753Z,103443.00
2022-12-01T12:59:53.225Z,103440.00
2022-12-01T13:02:32.917Z,103441.00
2022-12-01T13:05:10.571Z,103449.00
2022-12-01T13:07:48.648Z,103455.00
2022-12-01T13:10:34.470Z,103459.00
2022-12-01T13:13:19.423Z,103450.00
2022-12-01T13:15:51.968Z,103456.00
2022-12-01T13:18:34.760Z,103447.00
2022-12-01T13:21:05.695Z,103455.00
2022-12-01T13:23:38.927Z,103445.00
2022-12-01T13:26:10.665Z,103458.00
2022-12-01T13:28:53.016Z,103453.00
2022-12-01T13:31:22.523Z,103451.00
2022-12-01T13:34:04.862Z,103452.00
2022-12-01T13:36:50.691Z,103460.00
2022-12-01T13:39:27.995Z,103450.00
2022-12-01T13:42:06.275Z,103446.00
2022-12-01T13:44:42.778Z,103447.00
2022-12-01T13:47:39.967Z,103448.00
2022-12-01T13:50:57.336Z,103462.00
2022-12-01T13:54:01.488Z,103449.00
2022-12-01T13:56:45.292Z,103449.00
2022-12-01T14:00:03.402Z,103442.00
2022-12-01T14:03:54.359Z,103447.00
2022-12-01T14:06:30.146Z,103453.00
2022-12-01T14:09:03.455Z,103453.00
2022-12-01T14:11:35.931Z,103441.00
2022-12-01T14:14:22.732Z,103443.00
2022-12-01T14:16:58.623Z,103435.00
2022-12-01T14:19:35.624Z,103435.00
2022-12-01T14:22:35.194Z,103432.00
2022-12-01T14:25:11.052Z,103432.00
2022-12-01T14:27:45.336Z,103432.00
2022-12-01T14:31:03.064Z,103430.00
2022-12-01T14:34:00.013Z,103430.00
2022-12-01T14:36:42.752Z,103425.00
2022-12-01T14:39:20.402Z,103427.00
2022-12-01T14:41:53.330Z,103424.00
2022-12-01T14:44:44.186Z,103430.00
2022-12-01T14:47:22.266Z,103435.00
2022-12-01T14:49:59.652Z,103438.00
2022-12-01T14:52:41.440Z,103435.00
2022-12-01T14:55:21.141Z,103431.00
2022-12-01T14:58:06.531Z,103433.00
2022-12-01T15:00:39.366Z,103429.00
2022-12-01T15:03:20.421Z,103427.00
2022-12-01T15:05:49.829Z,103433.00
2022-12-01T15:11:25.520Z,103428.00
2022-12-01T15:13:56.660Z,103418.00
2022-12-01T15:16:30.297Z,103428.00
2022-12-01T15:18:59.405Z,103428.00
2022-12-01T15:21:31.706Z,103426.00
2022-12-01T15:24:03.762Z,103428.00
2022-12-01T15:26:37.364Z,103422.00
2022-12-01T15:29:16.758Z,103435.00
2022-12-01T15:31:49.595Z,103444.00
2022-12-01T15:34:23.376Z,103432.00
2022-12-01T15:36:54.346Z,103442.00
2022-12-01T15:39:31.516Z,103444.00
2022-12-01T15:42:02.082Z,103445.00
2022-12-01T15:44:35.801Z,103444.00
2022-12-01T15:47:33.466Z,103434.00
2022-12-01T15:50:02.144Z,103435.00
2022-12-01T15:52:32.353Z,103428.00
2022-12-01T15:55:07.191Z,103422.00
2022-12-01T15:57:37.272Z,103434.00
2022-12-01T16:00:07.754Z,103446.00
2022-12-01T16:02:41.563Z,103439.00
2022-12-01T16:05:19.989Z,103439.00
2022-12-01T16:10:38.640Z,103437.00
2022-12-01T16:13:48.253Z,103443.00
2022-12-01T16:16:42.866Z,103438.00
2022-12-01T16:19:28.157Z,103437.00
2022-12-01T16:22:05.888Z,103442.00
2022-12-01T16:24:45.274Z,103423.00
2022-12-01T16:27:23.724Z,103420.00
2022-12-01T16:29:57.737Z,103431.00
2022-12-01T16:32:33.577Z,103422.00
2022-12-01T16:35:04.478Z,103414.00
2022-12-01T16:37:33.759Z,103408.00
2022-12-01T16:40:02.553Z,103410.00
2022-12-01T16:42:31.997Z,103420.00
2022-12-01T16:45:02.012Z,103410.00
2022-12-01T16:47:33.446Z,103419.00
2022-12-01T16:50:02.086Z,103415.00
2022-12-01T16:52:47.231Z,103412.00
2022-12-01T16:55:29.429Z,103404.00
2022-12-01T16:57:58.134Z,103411.00
2022-12-01T17:00:29.500Z,103410.00
2022-12-01T17:02:58.939Z,103402.00
2022-12-01T17:05:27.801Z,103409.00
2022-12-01T17:07:56.543Z,103402.00
2022-12-01T17:10:25.927Z,103403.00
2022-12-01T17:12:54.569Z,103385.00
2022-12-01T17:15:23.205Z,103396.00
2022-12-01T17:17:53.258Z,103389.00
2022-12-01T17:20:21.896Z,103394.00
2022-12-01T17:22:50.581Z,103395.00
2022-12-01T17:25:19.472Z,103400.00
2022-12-01T17:27:48.139Z,103396.00
2022-12-01T17:30:17.256Z,103403.00
2022-12-01T17:32:46.571Z,103408.00
2022-12-01T17:35:16.756Z,103396.00
2022-12-01T17:37:45.975Z,103395.00
2022-12-01T17:40:15.203Z,103402.00
2022-12-01T17:42:50.150Z,103404.00
2022-12-01T17:45:19.951Z,103408.00
2022-12-01T17:47:48.693Z,103398.00
2022-12-01T17:50:19.124Z,103399.00
2022-12-01T17:52:47.907Z,103402.00
2022-12-01T17:55:16.806Z,103396.00
2022-12-01T17:57:45.443Z,103394.00
2022-12-01T18:00:16.217Z,103402.00
2022-12-01T18:02:47.358Z,103399.00
2022-12-01T18:05:16.143Z,103390.00
2022-12-01T18:07:46.332Z,103392.00
2022-12-01T18:10:15.101Z,103399.00
2022-12-01T18:12:43.834Z,103395.00
2022-12-01T18:15:13.353Z,103402.00
2022-12-01T18:17:41.919Z,103386.00
2022-12-01T18:20:11.885Z,103387.00
2022-12-01T18:22:40.936Z,103384.00
2022-12-01T18:25:11.529Z,103377.00
2022-12-01T18:27:42.443Z,103383.00
2022-12-01T18:30:12.872Z,103386.00
2022-12-01T18:32:41.521Z,103382.00
2022-12-01T18:35:11.091Z,103401.00
2022-12-01T18:37:40.464Z,103388.00
2022-12-01T18:40:12.628Z,103387.00
2022-12-01T18:42:41.423Z,103388.00
2022-12-01T18:45:14.370Z,103389.00
2022-12-01T18:47:46.704Z,103408.00
2022-12-01T18:50:15.332Z,103404.00
2022-12-01T18:52:43.957Z,103415.00
2022-12-01T18:55:14.015Z,103412.00
2022-12-01T18:57:42.638Z,103413.00
2022-12-01T19:00:13.308Z,103412.00
2022-12-01T19:02:42.088Z,103416.00
2022-12-01T19:05:11.447Z,103428.00
2022-12-01T19:07:40.078Z,103412.00
2022-12-01T19:10:10.329Z,103417.00
2022-12-01T19:12:41.321Z,103421.00
2022-12-01T19:15:11.816Z,103420.00
2022-12-01T19:17:40.760Z,103421.00
2022-12-01T19:20:11.530Z,103425.00
2022-12-01T19:22:40.187Z,103430.00
2022-12-01T19:25:11.348Z,103433.00
2022-12-01T19:27:41.918Z,103439.00
2022-12-01T19:30:11.715Z,103427.00
2022-12-01T19:32:43.511Z,103429.00
2022-12-01T19:35:12.111Z,103434.00
2022-12-01T19:37:40.724Z,103428.00
2022-12-01T19:40:10.903Z,103429.00
2022-12-01T19:42:41.934Z,103429.00
2022-12-01T19:45:12.031Z,103437.00
2022-12-01T19:47:40.682Z,103438.00
2022-12-01T19:50:11.315Z,103434.00
2022-12-01T19:52:41.622Z,103434.00
2022-12-01T19:55:11.888Z,103435.00
2022-12-01T19:57:42.856Z,103439.00
2022-12-01T20:00:13.530Z,103435.00
2022-12-01T20:02:42.932Z,103420.00
2022-12-01T20:05:11.731Z,103435.00
2022-12-01T20:07:40.504Z,103430.00
2022-12-01T20:10:10.431Z,103441.00
2022-12-01T20:12:39.054Z,103447.00
2022-12-01T20:15:10.917Z,103444.00
2022-12-01T20:17:39.647Z,103438.00
2022-12-01T20:20:10.763Z,103435.00
2022-12-01T20:22:40.093Z,103420.00
2022-12-01T20:25:09.988Z,103443.00
2022-12-01T20:27:38.616Z,103427.00
2022-12-01T20:30:12.098Z,103430.00
2022-12-01T20:32:40.755Z,103429.00
2022-12-01T20:35:13.514Z,103432.00
2022-12-01T20:37:43.030Z,103432.00
2022-12-01T20:40:13.093Z,103440.00
2022-12-01T20:42:41.781Z,103450.00
2022-12-01T20:45:11.875Z,103447.00
2022-12-01T20:47:40.580Z,103448.00
2022-12-01T20:50:10.862Z,103443.00
2022-12-01T20:52:40.838Z,103430.00
2022-12-01T20:55:10.371Z,103444.00
2022-12-01T20:57:39.108Z,103440.00
2022-12-01T21:00:13.107Z,103443.00
2022-12-01T21:02:43.724Z,103449.00
2022-12-01T21:05:13.633Z,103443.00
2022-12-01T21:07:42.477Z,103438.00
2022-12-01T21:10:15.735Z,103437.00
2022-12-01T21:13:08.527Z,103446.00
2022-12-01T21:15:46.386Z,103447.00
2022-12-01T21:18:24.879Z,103440.00
2022-12-01T21:21:03.574Z,103447.00
2022-12-01T21:23:32.249Z,103434.00
2022-12-01T21:26:01.633Z,103433.00
2022-12-01T21:28:31.390Z,103425.00
2022-12-01T21:31:11.549Z,103423.00
2022-12-01T21:33:43.229Z,103427.00
2022-12-01T21:36:18.382Z,103441.00
2022-12-01T21:38:49.561Z,103438.00
2022-12-01T21:41:25.934Z,103453.00
2022-12-01T21:44:01.370Z,103447.00
2022-12-01T21:46:30.945Z,103449.00
2022-12-01T21:49:02.837Z,103449.00
2022-12-01T21:51:31.737Z,103458.00
2022-12-01T21:54:00.513Z,103451.00
2022-12-01T21:56:31.732Z,103456.00
2022-12-01T21:59:12.189Z,103447.00
2022-12-01T22:01:42.274Z,103450.00
2022-12-01T22:04:21.120Z,103448.00
2022-12-01T22:06:53.426Z,103469.00
2022-12-01T22:09:27.682Z,103437.00
2022-12-01T22:11:59.219Z,103432.00
2022-12-01T22:14:40.359Z,103430.00
2022-12-01T22:17:24.172Z,103439.00
2022-12-01T22:20:00.991Z,103441.00
2022-12-01T22:22:32.864Z,103432.00
2022-12-01T22:25:25.589Z,103441.00
2022-12-01T22:28:01.325Z,103434.00
2022-12-01T22:30:49.714Z,103431.00
2022-12-01T22:33:23.039Z,103430.00
2022-12-01T22:36:01.235Z,103435.00
2022-12-01T22:38:39.764Z,103417.00
2022-12-01T22:41:14.651Z,103434.00
2022-12-01T22:43:50.991Z,103428.00
2022-12-01T22:46:43.181Z,103432.00
2022-12-01T22:49:22.239Z,103428.00
2022-12-01T22:52:09.477Z,103429.00
2022-12-01T22:54:45.699Z,103429.00
2022-12-01T22:57:35.061Z,103441.00
2022-12-01T23:00:17.056Z,103453.00
2022-12-01T23:02:46.018Z,103458.00
2022-12-01T23:05:24.992Z,103463.00
2022-12-01T23:07:56.771Z,103464.00
2022-12-01T23:10:31.199Z,103465.00
2022-12-01T23:13:09.905Z,103460.00
2022-12-01T23:15:40.861Z,103455.00
2022-12-01T23:18:17.297Z,103455.00
2022-12-01T23:20:48.788Z,103461.00
2022-12-01T23:23:21.138Z,103444.00
2022-12-01T23:25:52.377Z,103453.00
2022-12-01T23:28:22.242Z,103456.00
2022-12-01T23:30:55.649Z,103461.00
2022-12-01T23:33:27.193Z,103456.00
2022-12-01T23:35:59.696Z,103460.00
2022-12-01T23:38:36.315Z,103462.00
2022-12-01T23:41:12.115Z,103449.00
2022-12-01T23:43:43.609Z,103451.00
2022-12-01T23:46:17.324Z,103446.00
2022-12-01T23:48:51.836Z,103454.00
2022-12-01T23:51:25.612Z,103456.00
2022-12-01T23:53:58.012Z,103445.00
2022-12-01T23:56:31.693Z,103453.00
2022-12-01T23:59:03.003Z,103449.00
